Time;durP1;ratioP1;P1;durP2;ratioP2;P2;SDS_P1;SDS_P2;PMS_P1;PMS_P2;Temp;Humidity;BMP_temperature;BMP_pressure;BME280_temperature;BME280_humidity;BME280_pressure;Samples;Min_cycle;Max_cycle;Signal;HPM_P1;HPM_P2
2023/05/18 00:05:00;;;;;;;8.40;2.08;;;;;;;9.83;50.48;98507.88;10514058;28;20115;-74
2023/05/18 00:10:22;;;;;;;7.87;1.80;;;;;;;9.80;50.90;98509.03;10531042;28;20123;-73
2023/05/18 00:15:42;;;;;;;10.13;1.67;;;;;;;9.78;51.10;98510.91;10530235;28;20355;-73
2023/05/18 00:21:03;;;;;;;6.97;2.00;;;;;;;9.76;51.08;98505.91;10528073;28;20115;-73
2023/05/18 00:26:25;;;;;;;8.95;1.80;;;;;;;9.73;50.91;98504.25;10512571;28;20168;-74
2023/05/18 00:31:46;;;;;;;8.60;1.80;;;;;;;9.69;50.94;98510.25;10540236;28;20071;-73
2023/05/18 00:37:07;;;;;;;6.70;2.08;;;;;;;9.64;51.30;98507.69;10526729;28;20047;-73
2023/05/18 00:42:28;;;;;;;8.73;2.05;;;;;;;9.61;51.32;98517.94;10540425;28;20149;-74
2023/05/18 00:47:49;;;;;;;9.02;2.03;;;;;;;9.54;51.33;98515.94;10512481;28;20123;-73
2023/05/18 00:53:10;;;;;;;6.22;1.45;;;;;;;9.49;51.56;98505.03;10523954;28;20123;-74
2023/05/18 00:58:30;;;;;;;9.30;2.47;;;;;;;9.45;51.29;98522.88;10537499;28;20040;-73
2023/05/18 01:03:55;;;;;;;8.00;2.25;;;;;;;9.41;51.47;98513.44;10495600;28;20093;-74
2023/05/18 01:09:16;;;;;;;11.13;2.45;;;;;;;9.38;51.91;98512.53;10509958;28;20075;-73
2023/05/18 01:14:48;;;;;;;7.45;2.08;;;;;;;9.35;51.90;98519.25;10509844;28;20118;-74
2023/05/18 01:20:25;;;;;;;9.48;2.00;;;;;;;9.30;51.87;98519.47;10525255;28;20123;-74
2023/05/18 01:25:52;;;;;;;9.15;2.05;;;;;;;9.24;52.13;98522.47;10510712;28;20151;-73
2023/05/18 01:31:14;;;;;;;8.52;2.05;;;;;;;9.19;52.28;98526.25;10536928;28;20058;-74
2023/05/18 01:36:35;;;;;;;10.90;2.38;;;;;;;9.03;52.32;98538.78;10521636;28;20478;-74
2023/05/18 01:42:03;;;;;;;9.13;1.83;;;;;;;8.94;52.74;98539.38;10541144;28;20143;-74
2023/05/18 01:47:24;;;;;;;9.00;2.30;;;;;;;8.91;53.14;98543.31;10499658;28;20051;-73
2023/05/18 01:52:50;;;;;;;11.02;1.92;;;;;;;8.87;53.43;98538.84;10498751;28;20119;-73
2023/05/18 01:58:11;;;;;;;9.82;2.10;;;;;;;8.83;53.42;98541.28;10524674;28;20123;-73
2023/05/18 02:03:32;;;;;;;10.15;2.38;;;;;;;8.71;53.38;98545.81;10497944;28;20458;-73
2023/05/18 02:08:54;;;;;;;9.57;2.67;;;;;;;8.65;53.82;98552.88;10512263;28;20497;-74
2023/05/18 02:14:15;;;;;;;6.40;1.70;;;;;;;8.60;54.03;98549.00;10536250;28;20086;-74
2023/05/18 02:19:36;;;;;;;7.38;2.17;;;;;;;8.57;54.13;98553.63;10507319;28;20068;-74
2023/05/18 02:24:58;;;;;;;5.90;2.33;;;;;;;8.55;54.45;98549.94;10520861;28;20068;-74
2023/05/18 02:30:18;;;;;;;8.32;2.17;;;;;;;8.47;54.59;98547.19;10511149;28;20059;-73
2023/05/18 02:35:40;;;;;;;8.75;2.15;;;;;;;8.41;54.84;98546.66;10525622;28;20071;-74
2023/05/18 02:41:01;;;;;;;7.53;2.22;;;;;;;8.32;54.86;98550.75;10497179;28;20127;-74
2023/05/18 02:46:21;;;;;;;9.85;1.70;;;;;;;8.23;55.08;98547.78;10511147;28;20051;-74
2023/05/18 02:51:42;;;;;;;10.98;2.22;;;;;;;8.13;55.69;98555.22;10524588;28;20075;-74
2023/05/18 02:57:04;;;;;;;11.38;2.13;;;;;;;8.04;55.38;98560.06;10510697;28;20048;-74
2023/05/18 03:02:37;;;;;;;8.82;2.55;;;;;;;7.99;56.09;98547.06;10513899;28;20066;-74
2023/05/18 03:08:01;;;;;;;6.68;2.08;;;;;;;7.95;55.93;98557.84;10525012;28;20493;-74
2023/05/18 03:13:23;;;;;;;12.35;2.70;;;;;;;7.97;56.07;98560.06;10538437;28;20497;-74
2023/05/18 03:18:44;;;;;;;8.27;2.15;;;;;;;8.03;56.41;98563.41;10496401;28;20060;-74
2023/05/18 03:24:06;;;;;;;10.43;2.60;;;;;;;8.07;56.72;98572.09;10538650;28;20078;-74
2023/05/18 03:29:29;;;;;;;8.68;2.13;;;;;;;8.16;56.75;98571.53;10524447;28;20063;-74
2023/05/18 03:34:54;;;;;;;8.00;2.20;;;;;;;8.25;57.15;98564.66;10538626;28;20478;-74
2023/05/18 03:40:23;;;;;;;7.68;2.33;;;;;;;8.30;57.04;98561.69;10538235;28;20182;-75
2023/05/18 03:45:44;;;;;;;8.40;2.70;;;;;;;8.38;57.07;98569.28;10517390;28;20067;-74
2023/05/18 03:51:05;;;;;;;7.38;2.10;;;;;;;8.42;57.27;98552.97;10544340;28;20048;-73
2023/05/18 03:56:29;;;;;;;6.63;2.28;;;;;;;8.45;57.27;98566.47;10529086;28;20043;-74
2023/05/18 04:01:52;;;;;;;7.82;2.00;;;;;;;8.61;57.03;98581.09;10510101;28;20164;-74
2023/05/18 04:07:20;;;;;;;;;;;;;;;8.65;57.25;98587.00;10530448;28;20094;-74
2023/05/18 04:12:41;;;;;;;6.50;2.20;;;;;;;8.76;56.99;98589.38;10528439;28;19955;-74
2023/05/18 04:18:02;;;;;;;8.52;2.25;;;;;;;8.89;57.10;98594.72;10513582;28;20040;-74
2023/05/18 04:23:23;;;;;;;8.18;2.17;;;;;;;8.98;57.11;98595.44;10541212;28;20064;-74
2023/05/18 04:28:46;;;;;;;9.68;2.75;;;;;;;9.05;56.88;98597.41;10521666;28;20104;-74
2023/05/18 04:34:07;;;;;;;7.57;2.05;;;;;;;9.18;56.96;98599.97;10527375;28;20055;-74
2023/05/18 04:39:28;;;;;;;8.57;2.60;;;;;;;9.24;56.85;98606.06;10524506;28;20114;-74
2023/05/18 04:44:51;;;;;;;10.00;2.55;;;;;;;9.35;56.27;98619.53;10524177;28;20069;-74
2023/05/18 04:50:16;;;;;;;12.50;2.37;;;;;;;9.54;56.51;98621.09;10531261;28;20054;-74
2023/05/18 04:55:37;;;;;;;;;;;;;;;9.81;56.25;98621.28;10515386;28;20482;-72
2023/05/18 05:01:01;;;;;;;10.97;2.13;;;;;;;9.92;55.75;98616.00;10544775;28;19955;-72
2023/05/18 05:06:23;;;;;;;11.35;2.13;;;;;;;10.08;55.35;98616.63;10529411;28;20044;-72
2023/05/18 05:11:45;;;;;;;11.52;3.40;;;;;;;10.31;55.54;98627.59;10515416;28;20097;-73
2023/05/18 05:17:05;;;;;;;5.95;1.80;;;;;;;10.16;54.63;98627.72;10500904;28;20071;-72
2023/05/18 05:22:26;;;;;;;10.70;2.13;;;;;;;9.97;55.00;98628.97;10528216;28;20379;-72
2023/05/18 05:27:47;;;;;;;6.38;1.75;;;;;;;10.06;55.10;98629.66;10486881;28;20097;-71
2023/05/18 05:33:12;;;;;;;11.40;2.15;;;;;;;10.16;55.11;98630.50;10502521;28;20063;-72
2023/05/18 05:38:33;;;;;;;6.10;1.55;;;;;;;10.32;54.70;98615.13;10491305;28;20044;-76
2023/05/18 05:43:55;;;;;;;9.48;2.00;;;;;;;10.38;54.12;98621.19;10487478;28;20059;-70
2023/05/18 05:49:18;;;;;;;7.28;2.00;;;;;;;10.36;54.01;98612.66;10499973;28;20185;-70
2023/05/18 05:54:43;;;;;;;12.43;2.30;;;;;;;10.52;54.15;98635.59;10515346;28;20421;-71
2023/05/18 06:00:09;;;;;;;8.52;2.33;;;;;;;10.63;53.93;98651.13;10511633;28;20068;-71
2023/05/18 06:05:40;;;;;;;9.25;2.10;;;;;;;10.86;53.78;98646.75;10513486;28;20123;-70
2023/05/18 06:11:02;;;;;;;6.38;2.20;;;;;;;10.80;53.15;98657.44;10512240;28;20051;-70
2023/05/18 06:16:24;;;;;;;7.28;2.08;;;;;;;11.27;53.44;98663.97;10525801;28;20490;-70
2023/05/18 06:21:45;;;;;;;11.93;2.60;;;;;;;11.63;52.88;98668.16;10510885;28;20162;-71
2023/05/18 06:27:07;;;;;;;9.77;1.98;;;;;;;12.02;51.79;98666.28;10511663;28;20509;-76
2023/05/18 06:32:42;;;;;;;6.53;2.08;;;;;;;12.45;51.49;98675.09;10514810;28;20131;-73
2023/05/18 06:38:03;;;;;;;13.38;2.25;;;;;;;12.88;50.73;98682.53;10511256;28;20435;-73
2023/05/18 06:43:25;;;;;;;12.02;2.63;;;;;;;13.00;49.58;98687.56;10510835;28;20087;-73
2023/05/18 06:49:09;;;;;;;10.30;2.17;;;;;;;12.81;49.00;98693.88;10517152;28;20075;-73
2023/05/18 06:54:30;;;;;;;8.98;2.30;;;;;;;12.66;47.92;98694.16;10496773;28;20048;-73
2023/05/18 06:59:52;;;;;;;13.27;2.20;;;;;;;12.85;48.47;98688.59;10495830;28;20064;-72
2023/05/18 07:05:15;;;;;;;8.60;1.80;;;;;;;12.98;48.24;98699.34;10510178;28;20458;-73
2023/05/18 07:10:36;;;;;;;7.70;2.05;;;;;;;13.36;47.46;98701.44;10510446;28;20533;-72
2023/05/18 07:15:57;;;;;;;7.35;2.05;;;;;;;13.61;46.68;98708.78;10519321;28;20075;-72
2023/05/18 07:21:17;;;;;;;8.73;2.05;;;;;;;14.07;46.16;98705.69;10533161;28;20173;-72
2023/05/18 07:26:38;;;;;;;9.48;2.60;;;;;;;14.23;45.24;98700.47;10518057;28;20040;-72
2023/05/18 07:31:59;;;;;;;8.40;1.92;;;;;;;14.35;44.53;98708.97;10516882;28;20461;-72
2023/05/18 07:37:20;;;;;;;6.75;2.03;;;;;;;15.57;44.12;98695.22;10529880;28;20123;-73
2023/05/18 07:42:41;;;;;;;10.63;2.60;;;;;;;17.05;41.54;98702.69;10528857;28;20127;-72
2023/05/18 07:48:02;;;;;;;8.25;2.10;;;;;;;18.95;39.45;98702.28;10517238;28;20120;-72
2023/05/18 07:53:23;;;;;;;7.70;2.15;;;;;;;20.55;35.36;98692.78;10516708;28;20067;-74
2023/05/18 07:58:43;;;;;;;6.85;2.22;;;;;;;21.22;31.67;98697.69;10490717;28;20120;-73
2023/05/18 08:04:04;;;;;;;7.47;2.28;;;;;;;21.12;31.37;98685.94;10473699;28;20123;-72
2023/05/18 08:09:25;;;;;;;9.07;2.33;;;;;;;21.77;29.99;98699.91;10530407;28;20055;-72
2023/05/18 08:14:46;;;;;;;13.13;2.63;;;;;;;22.25;28.69;98688.91;10507541;28;20067;-72
2023/05/18 08:20:09;;;;;;;9.60;2.38;;;;;;;22.89;26.98;98689.06;10529882;28;20516;-72
2023/05/18 08:25:29;;;;;;;10.23;2.50;;;;;;;24.16;26.07;98689.50;10528096;28;20063;-70
2023/05/18 08:30:51;;;;;;;10.98;2.20;;;;;;;22.89;26.00;98694.75;10528505;28;20123;-70
2023/05/18 08:36:12;;;;;;;10.43;2.30;;;;;;;23.05;26.15;98693.16;10543487;28;20197;-70
2023/05/18 08:42:00;;;;;;;9.68;2.50;;;;;;;23.54;26.05;98696.84;10525328;28;20046;-71
2023/05/18 08:47:25;;;;;;;7.25;2.05;;;;;;;23.79;25.74;98696.25;10497490;28;20109;-70
2023/05/18 08:52:52;;;;;;;9.55;2.30;;;;;;;24.16;23.85;98694.47;10525653;28;20501;-70
2023/05/18 08:58:14;;;;;;;10.32;2.20;;;;;;;24.40;24.12;98688.75;10514272;28;20044;-70
2023/05/18 09:03:35;;;;;;;7.93;2.00;;;;;;;23.64;25.29;98683.69;10512523;28;20115;-70
2023/05/18 09:08:57;;;;;;;9.02;1.98;;;;;;;23.18;25.43;98685.03;10509679;28;20044;-70
2023/05/18 09:14:18;;;;;;;7.93;1.83;;;;;;;22.01;26.26;98677.38;10538722;28;20051;-70
2023/05/18 09:19:39;;;;;;;8.70;2.15;;;;;;;22.47;26.15;98677.59;10511092;28;20071;-70
2023/05/18 09:25:04;;;;;;;8.25;2.22;;;;;;;23.78;24.98;98683.38;10541609;28;20075;-70
2023/05/18 09:30:24;;;;;;;7.90;1.98;;;;;;;24.77;23.76;98676.91;10512401;28;20062;-70
2023/05/18 09:35:45;;;;;;;7.63;1.92;;;;;;;24.73;23.03;98668.25;10498715;28;20067;-70
2023/05/18 09:41:10;;;;;;;7.47;2.05;;;;;;;22.52;24.16;98670.69;10526579;28;20066;-70
2023/05/18 09:46:31;;;;;;;8.18;2.10;;;;;;;21.45;26.32;98681.59;10495741;28;20131;-70
2023/05/18 09:51:52;;;;;;;6.97;1.67;;;;;;;21.02;26.74;98677.00;10512238;28;20115;-70
2023/05/18 09:57:14;;;;;;;10.57;2.13;;;;;;;20.39;27.22;98657.31;10524861;28;20047;-70
2023/05/18 10:02:44;;;;;;;7.15;1.50;;;;;;;19.80;27.41;98672.44;10496156;28;20064;-70
2023/05/18 10:08:06;;;;;;;7.20;1.58;;;;;;;18.97;28.51;98674.81;10512995;28;20455;-71
2023/05/18 10:13:27;;;;;;;9.35;2.00;;;;;;;19.58;29.12;98660.03;10525603;28;20044;-71
2023/05/18 10:18:47;;;;;;;8.10;1.42;;;;;;;20.32;28.25;98664.81;10511562;28;20119;-70
2023/05/18 10:24:08;;;;;;;6.35;1.83;;;;;;;20.56;28.39;98651.00;10511189;28;20090;-70
2023/05/18 10:29:29;;;;;;;6.60;1.50;;;;;;;21.24;27.98;98649.53;10511153;28;20174;-70
2023/05/18 10:34:51;;;;;;;5.85;1.10;;;;;;;20.85;27.39;98647.25;10511240;28;20565;-70
2023/05/18 10:40:12;;;;;;;9.88;1.77;;;;;;;20.92;27.58;98639.69;10508845;28;20043;-70
2023/05/18 10:45:34;;;;;;;8.93;1.42;;;;;;;21.12;27.38;98634.84;10506251;28;20491;-70
2023/05/18 10:50:55;;;;;;;7.75;1.80;;;;;;;21.54;27.89;98623.72;10504057;28;20123;-70
2023/05/18 10:56:16;;;;;;;5.45;1.45;;;;;;;21.25;26.84;98633.97;10505779;28;20431;-70
2023/05/18 11:01:37;;;;;;;7.55;1.40;;;;;;;21.07;27.18;98636.06;10536535;28;20037;-70
2023/05/18 11:06:58;;;;;;;8.70;1.40;;;;;;;21.49;27.40;98625.66;10510061;28;20068;-70
2023/05/18 11:12:20;;;;;;;8.40;1.52;;;;;;;21.58;26.57;98621.03;10496354;28;20097;-70
2023/05/18 11:17:41;;;;;;;5.30;1.00;;;;;;;21.09;26.54;98619.09;10509989;28;20048;-70
2023/05/18 11:23:02;;;;;;;7.15;1.08;;;;;;;20.59;27.01;98618.50;10509994;28;20495;-70
2023/05/18 11:28:23;;;;;;;8.73;1.40;;;;;;;20.69;27.13;98623.88;10538615;28;20495;-70
2023/05/18 11:33:43;;;;;;;6.32;1.50;;;;;;;20.91;27.48;98612.69;10523584;28;20493;-70
2023/05/18 11:39:05;;;;;;;7.13;1.35;;;;;;;21.22;27.09;98615.38;10495630;28;20655;-70
2023/05/18 11:44:27;;;;;;;9.25;1.35;;;;;;;23.20;26.26;98613.91;10509836;28;20426;-70
2023/05/18 11:49:49;;;;;;;4.30;1.20;;;;;;;22.92;24.75;98608.75;10523698;28;20067;-70
2023/05/18 11:55:12;;;;;;;4.38;0.77;;;;;;;23.14;23.51;98615.16;10495376;28;20044;-70
2023/05/18 12:00:33;;;;;;;;;;;;;;;23.26;22.84;98611.22;10514911;28;20043;-70
2023/05/18 12:05:56;;;;;;;5.70;0.98;;;;;;;22.37;23.27;98604.03;10530266;28;19931;-70
2023/05/18 12:11:17;;;;;;;5.35;0.70;;;;;;;21.61;23.65;98599.84;10502513;28;20122;-70
2023/05/18 12:16:38;;;;;;;5.82;1.08;;;;;;;21.89;23.69;98592.34;10516014;28;20438;-70
2023/05/18 12:22:01;;;;;;;4.60;1.15;;;;;;;22.32;23.55;98591.06;10502157;28;20063;-70
2023/05/18 12:27:26;;;;;;;6.53;0.68;;;;;;;22.05;23.67;98582.97;10517270;28;20185;-70
2023/05/18 12:32:49;;;;;;;4.35;0.70;;;;;;;22.20;23.76;98587.81;10515320;28;20478;-70
2023/05/18 12:38:11;;;;;;;8.75;0.60;;;;;;;22.07;23.66;98577.38;10515852;28;20379;-70
2023/05/18 12:43:33;;;;;;;2.95;0.57;;;;;;;22.17;23.81;98577.72;10543941;28;20042;-70
2023/05/18 12:49:00;;;;;;;3.70;0.50;;;;;;;22.22;23.43;98565.84;10529257;28;20078;-70
2023/05/18 12:54:31;;;;;;;3.58;0.73;;;;;;;21.54;23.06;98581.13;10501801;28;20493;-70
2023/05/18 12:59:53;;;;;;;5.43;0.63;;;;;;;20.66;23.66;98568.44;10528993;28;20046;-70
2023/05/18 13:05:15;;;;;;;4.93;1.13;;;;;;;20.54;24.15;98569.38;10528229;28;20040;-70
2023/05/18 13:10:36;;;;;;;3.55;0.60;;;;;;;20.89;24.31;98567.94;10527484;28;20482;-70
2023/05/18 13:15:58;;;;;;;2.25;0.68;;;;;;;20.90;24.59;98575.06;10528075;28;20454;-70
2023/05/18 13:21:19;;;;;;;4.97;0.85;;;;;;;20.96;24.54;98572.50;10527938;28;20068;-70
2023/05/18 13:26:41;;;;;;;8.13;0.98;;;;;;;20.97;24.69;98561.88;10513673;28;20071;-70
2023/05/18 13:32:02;;;;;;;7.63;0.75;;;;;;;20.77;25.10;98578.81;10527211;28;20464;-70
2023/05/18 13:37:24;;;;;;;3.65;1.08;;;;;;;20.50;25.89;98565.66;10527075;28;20524;-70
2023/05/18 13:42:45;;;;;;;5.68;0.80;;;;;;;20.50;25.80;98565.66;10526713;28;20036;-70
2023/05/18 13:48:07;;;;;;;4.43;0.88;;;;;;;20.41;26.25;98570.22;10512477;28;20040;-70
2023/05/18 13:53:30;;;;;;;4.35;0.90;;;;;;;20.64;26.01;98566.22;10513172;28;20044;-70
2023/05/18 13:58:52;;;;;;;2.92;0.80;;;;;;;20.41;26.09;98563.81;10512112;28;20449;-70
2023/05/18 14:04:12;;;;;;;6.65;0.88;;;;;;;20.13;26.39;98554.84;10525493;28;20476;-70
2023/05/18 14:09:33;;;;;;;6.38;0.73;;;;;;;19.71;26.00;98551.63;10540836;28;20039;-70
2023/05/18 14:14:54;;;;;;;4.65;0.80;;;;;;;19.14;26.54;98555.41;10525500;28;20079;-70
2023/05/18 14:20:15;;;;;;;3.97;0.55;;;;;;;19.36;26.32;98552.13;10511066;28;20490;-70
2023/05/18 14:25:36;;;;;;;4.68;0.50;;;;;;;19.31;26.52;98539.91;10524534;28;20044;-70
2023/05/18 14:30:58;;;;;;;3.63;1.00;;;;;;;19.04;26.93;98545.72;10511216;28;20063;-70
2023/05/18 14:36:18;;;;;;;4.28;0.60;;;;;;;18.70;27.18;98548.34;10524855;28;20115;-70
2023/05/18 14:41:41;;;;;;;3.42;0.90;;;;;;;18.43;28.00;98556.88;10511376;28;20120;-70
2023/05/18 14:47:02;;;;;;;3.50;0.70;;;;;;;18.12;28.37;98548.97;10496961;28;20127;-70
2023/05/18 14:52:23;;;;;;;4.97;0.90;;;;;;;17.87;28.65;98553.41;10524434;28;20136;-70
2023/05/18 14:57:44;;;;;;;4.60;1.05;;;;;;;17.70;29.10;98545.44;10524512;28;20063;-69
2023/05/18 15:03:05;;;;;;;2.88;0.60;;;;;;;17.87;29.26;98538.53;10523960;28;20409;-69
2023/05/18 15:08:26;;;;;;;7.15;1.10;;;;;;;17.62;29.22;98542.16;10524267;28;20113;-69
2023/05/18 15:13:46;;;;;;;5.97;1.10;;;;;;;17.08;30.00;98540.66;10539192;28;20184;-71
2023/05/18 15:19:07;;;;;;;7.07;1.40;;;;;;;16.78;31.04;98551.75;10539371;28;20154;-71
2023/05/18 15:24:28;;;;;;;8.70;1.48;;;;;;;16.57;32.34;98555.47;10538680;28;20401;-71
2023/05/18 15:29:48;;;;;;;6.85;1.45;;;;;;;16.21;32.90;98551.31;10538784;28;20545;-71
2023/05/18 15:35:09;;;;;;;7.97;1.60;;;;;;;16.01;34.14;98550.84;10529408;28;20142;-71
2023/05/18 15:40:30;;;;;;;6.50;1.52;;;;;;;15.81;34.49;98560.16;10531821;28;20534;-71
2023/05/18 15:45:51;;;;;;;5.47;1.77;;;;;;;15.38;35.51;98563.91;10531922;28;20455;-71
2023/05/18 15:51:11;;;;;;;5.75;1.40;;;;;;;15.07;35.99;98555.69;10531556;28;20131;-71
2023/05/18 15:56:32;;;;;;;10.55;1.70;;;;;;;14.70;36.78;98554.69;10531199;28;20166;-70
2023/05/18 16:01:52;;;;;;;5.97;2.10;;;;;;;14.74;36.96;98552.13;10539234;28;20147;-71
2023/05/18 16:07:14;;;;;;;5.45;1.35;;;;;;;14.72;37.05;98555.56;10516757;28;20134;-70
2023/05/18 16:12:34;;;;;;;8.35;1.20;;;;;;;14.79;37.05;98553.88;10530769;28;20114;-70
2023/05/18 16:17:55;;;;;;;8.32;1.38;;;;;;;14.88;36.94;98545.34;10502487;28;20497;-71
2023/05/18 16:23:15;;;;;;;8.65;1.45;;;;;;;14.66;37.38;98546.72;10516267;28;20436;-71
2023/05/18 16:28:36;;;;;;;6.75;1.35;;;;;;;14.61;37.63;98545.00;10515669;28;20178;-71
2023/05/18 16:33:57;;;;;;;5.03;1.25;;;;;;;14.64;37.48;98546.59;10501788;28;20097;-71
2023/05/18 16:39:18;;;;;;;4.28;1.00;;;;;;;14.78;37.43;98549.59;10515739;28;20158;-70
2023/05/18 16:44:39;;;;;;;4.05;1.13;;;;;;;14.80;37.61;98546.91;10528298;28;20097;-71
2023/05/18 16:49:59;;;;;;;6.93;1.23;;;;;;;14.77;37.50;98539.72;10529388;28;20107;-71
2023/05/18 16:55:22;;;;;;;5.10;1.23;;;;;;;14.53;38.06;98544.47;10528948;28;20049;-71
2023/05/18 17:00:43;;;;;;;5.20;0.85;;;;;;;14.54;38.29;98543.88;10543858;28;20127;-71
2023/05/18 17:06:04;;;;;;;5.28;1.25;;;;;;;13.98;39.09;98561.22;10528311;28;20142;-71
2023/05/18 17:11:27;;;;;;;8.18;1.27;;;;;;;13.87;39.38;98558.34;10528307;28;20124;-71
2023/05/18 17:16:48;;;;;;;8.50;0.95;;;;;;;13.69;39.11;98555.03;10515092;28;20116;-71
2023/05/18 17:22:09;;;;;;;6.43;1.10;;;;;;;13.49;39.08;98567.69;10513596;28;20177;-70
2023/05/18 17:27:29;;;;;;;7.07;0.80;;;;;;;13.38;39.21;98569.03;10527806;28;20071;-71
2023/05/18 17:32:50;;;;;;;6.78;1.58;;;;;;;13.31;39.34;98570.69;10525025;28;20127;-71
2023/05/18 17:38:10;;;;;;;4.75;1.33;;;;;;;13.16;39.81;98562.59;10542228;28;20116;-71
2023/05/18 17:43:31;;;;;;;5.97;1.08;;;;;;;13.21;39.56;98569.97;10499057;28;20052;-71
2023/05/18 17:48:52;;;;;;;5.55;1.10;;;;;;;13.27;39.69;98569.66;10526734;28;20074;-71
2023/05/18 17:54:12;;;;;;;5.82;0.98;;;;;;;13.19;39.71;98569.84;10526719;28;20129;-71
2023/05/18 17:59:33;;;;;;;3.80;1.27;;;;;;;13.03;40.42;98568.69;10526293;28;20132;-71
2023/05/18 18:04:56;;;;;;;7.13;1.23;;;;;;;12.82;40.83;98570.00;10526654;28;20044;-71
2023/05/18 18:10:17;;;;;;;4.20;1.10;;;;;;;12.81;41.40;98568.53;10512020;28;20122;-70
2023/05/18 18:15:38;;;;;;;4.65;1.13;;;;;;;12.84;41.21;98577.84;10511948;28;20095;-71
2023/05/18 18:20:58;;;;;;;4.93;1.20;;;;;;;12.72;41.32;98574.16;10540641;28;20165;-71
2023/05/18 18:26:20;;;;;;;6.75;1.40;;;;;;;12.68;41.64;98580.22;10511460;28;20063;-71
2023/05/18 18:31:41;;;;;;;7.43;1.40;;;;;;;12.66;42.01;98571.66;10511469;28;20123;-71
2023/05/18 18:37:02;;;;;;;7.25;1.17;;;;;;;12.75;42.47;98584.94;10525172;28;20119;-71
2023/05/18 18:42:22;;;;;;;5.65;1.52;;;;;;;12.66;42.57;98582.88;10511156;28;20060;-71
2023/05/18 18:47:43;;;;;;;7.15;1.58;;;;;;;12.55;43.00;98594.66;10524873;28;20068;-71
2023/05/18 18:53:04;;;;;;;4.30;1.50;;;;;;;12.45;43.67;98585.50;10540007;28;20055;-71
2023/05/18 18:58:24;;;;;;;6.47;1.15;;;;;;;12.41;44.03;98590.81;10524634;28;20115;-71
2023/05/18 19:03:45;;;;;;;6.63;1.63;;;;;;;12.33;44.37;98590.94;10510294;28;20485;-71
2023/05/18 19:09:06;;;;;;;7.35;1.48;;;;;;;12.27;44.61;98587.72;10514408;28;20120;-71
2023/05/18 19:14:27;;;;;;;7.38;1.55;;;;;;;12.33;45.27;98594.47;10505106;28;20508;-71
2023/05/18 19:19:47;;;;;;;6.88;1.75;;;;;;;12.30;45.36;98595.66;10533088;28;20245;-71
2023/05/18 19:25:08;;;;;;;5.78;2.05;;;;;;;12.23;45.19;98599.31;10547638;28;20042;-71
2023/05/18 19:30:29;;;;;;;7.05;1.90;;;;;;;12.19;45.44;98610.22;10532337;28;20586;-71
2023/05/18 19:35:51;;;;;;;8.25;1.67;;;;;;;12.12;45.60;98611.09;10532062;28;20120;-71
2023/05/18 19:41:12;;;;;;;9.05;1.52;;;;;;;12.11;46.10;98608.88;10547289;28;20169;-71
2023/05/18 19:46:32;;;;;;;6.95;1.38;;;;;;;12.17;46.06;98612.88;10531498;28;20064;-71
2023/05/18 19:51:53;;;;;;;4.03;1.02;;;;;;;12.18;45.98;98619.22;10517559;28;20081;-71
2023/05/18 19:57:13;;;;;;;5.82;1.90;;;;;;;12.20;45.93;98622.16;10531448;28;20163;-71
2023/05/18 20:02:34;;;;;;;5.72;1.23;;;;;;;12.20;46.16;98628.50;10530980;28;20076;-71
2023/05/18 20:07:56;;;;;;;5.90;1.40;;;;;;;12.22;45.88;98637.03;10530843;28;20040;-71
2023/05/18 20:13:17;;;;;;;6.10;1.42;;;;;;;12.20;46.00;98630.56;10531147;28;20139;-71
2023/05/18 20:18:38;;;;;;;5.05;1.20;;;;;;;12.21;46.32;98635.56;10544592;28;20513;-71
2023/05/18 20:24:00;;;;;;;6.25;2.25;;;;;;;12.21;46.21;98634.84;10502305;28;20040;-71
2023/05/18 20:29:20;;;;;;;10.18;1.90;;;;;;;12.21;46.18;98638.38;10530328;28;20559;-71
2023/05/18 20:34:43;;;;;;;5.20;1.58;;;;;;;12.22;46.41;98636.31;10530043;28;20119;-71
2023/05/18 20:40:07;;;;;;;5.30;1.35;;;;;;;12.22;46.40;98642.63;10516286;28;20067;-71
2023/05/18 20:45:30;;;;;;;7.40;1.63;;;;;;;12.17;46.29;98640.13;10544560;28;20120;-71
2023/05/18 20:50:53;;;;;;;4.45;1.40;;;;;;;12.17;46.28;98632.47;10501542;28;20166;-71
2023/05/18 20:56:14;;;;;;;5.72;1.50;;;;;;;12.12;46.34;98639.06;10544287;28;20131;-71
2023/05/18 21:01:37;;;;;;;3.50;1.20;;;;;;;12.11;46.25;98637.59;10528680;28;20600;-71
2023/05/18 21:06:59;;;;;;;7.35;1.58;;;;;;;12.12;46.55;98644.66;10529083;28;20044;-71
2023/05/18 21:12:20;;;;;;;9.95;1.65;;;;;;;12.12;46.19;98632.75;10528584;28;20467;-71
2023/05/18 21:17:42;;;;;;;7.85;2.03;;;;;;;12.11;46.88;98632.00;10528113;28;20063;-71
2023/05/18 21:23:03;;;;;;;6.90;1.48;;;;;;;12.12;46.83;98624.34;10500372;28;20128;-71
2023/05/18 21:28:24;;;;;;;4.43;1.63;;;;;;;12.16;47.30;98624.63;10527390;28;20439;-71
2023/05/18 21:33:46;;;;;;;9.63;1.77;;;;;;;12.15;47.29;98632.31;10513231;28;20505;-71
2023/05/18 21:39:08;;;;;;;6.60;1.45;;;;;;;12.22;46.78;98630.69;10527565;28;20044;-71
2023/05/18 21:44:29;;;;;;;7.55;1.77;;;;;;;12.22;47.31;98622.31;10512928;28;20047;-71
2023/05/18 21:49:49;;;;;;;6.25;1.77;;;;;;;12.24;47.40;98623.19;10513079;28;20525;-71
2023/05/18 21:55:10;;;;;;;5.90;1.20;;;;;;;12.21;47.56;98615.25;10512504;28;20122;-71
2023/05/18 22:00:30;;;;;;;5.65;1.60;;;;;;;12.17;47.21;98624.06;10526552;28;20473;-71
2023/05/18 22:05:53;;;;;;;4.85;1.38;;;;;;;12.17;47.33;98621.28;10512269;28;20047;-71
2023/05/18 22:11:13;;;;;;;10.13;2.10;;;;;;;12.17;47.65;98617.75;10526158;28;20116;-71
2023/05/18 22:16:34;;;;;;;7.32;1.52;;;;;;;12.21;47.64;98610.38;10497725;28;20383;-71
2023/05/18 22:21:55;;;;;;;5.10;1.63;;;;;;;12.20;47.74;98605.38;10483935;28;20063;-71
2023/05/18 22:27:15;;;;;;;4.30;1.30;;;;;;;12.26;47.52;98595.38;10511543;28;20457;-71
2023/05/18 22:32:37;;;;;;;4.03;1.40;;;;;;;12.18;47.61;98600.38;10525132;28;20509;-71
2023/05/18 22:37:57;;;;;;;6.22;1.42;;;;;;;12.15;48.13;98590.31;10525735;28;20434;-71
2023/05/18 22:43:21;;;;;;;4.82;1.58;;;;;;;12.13;48.19;98584.56;10539155;28;20036;-71
2023/05/18 22:48:42;;;;;;;6.07;2.00;;;;;;;12.09;48.21;98587.09;10496972;28;20060;-71
2023/05/18 22:54:03;;;;;;;6.07;1.52;;;;;;;12.07;48.49;98586.19;10510983;28;20123;-71
2023/05/18 22:59:24;;;;;;;4.70;1.75;;;;;;;12.07;48.47;98586.94;10524586;28;20115;-71
2023/05/18 23:04:45;;;;;;;5.47;1.42;;;;;;;12.08;48.83;98580.00;10524431;28;20557;-71
2023/05/18 23:10:07;;;;;;;7.50;1.83;;;;;;;12.06;48.69;98585.44;10524531;28;20123;-71
2023/05/18 23:15:28;;;;;;;4.93;1.77;;;;;;;12.02;48.96;98593.53;10510508;28;20052;-71
2023/05/18 23:20:50;;;;;;;6.10;1.58;;;;;;;12.07;48.78;98594.59;10496334;28;20123;-71
2023/05/18 23:26:11;;;;;;;5.82;1.60;;;;;;;12.03;49.41;98595.75;10524243;28;20166;-71
2023/05/18 23:31:32;;;;;;;4.85;1.73;;;;;;;11.98;49.38;98590.44;10538968;28;20575;-71
2023/05/18 23:36:52;;;;;;;4.47;1.60;;;;;;;11.95;49.57;98591.59;10509860;28;20044;-71
2023/05/18 23:42:13;;;;;;;7.22;1.95;;;;;;;11.89;49.81;98579.97;10495850;28;20118;-71
2023/05/18 23:47:34;;;;;;;6.35;1.42;;;;;;;11.83;49.63;98582.28;10509723;28;20064;-71
2023/05/18 23:52:55;;;;;;;9.23;2.20;;;;;;;11.81;50.18;98588.47;10523831;28;20123;-71
2023/05/18 23:58:16;;;;;;;5.43;1.50;;;;;;;11.85;49.98;98585.25;10517212;28;20047;-71
